.
WxDataArchive / Data Records for 2009-07-02
2009-07-01 July 2009 2009-07-03

Data Records for Thursday, 02 July 2009

Time	Temp	Chill	HIndex	Humid	Dewpt	 Wind 	HiWind	WindDir	Rain 	Barom 
-----	----	-----	------	-----	-----	------	------	-------	-----	----- 
00:00	58.3	58.3	58.3	84	53.5	0	1	292	0.00	29.827 
00:05	58.3	58.3	58.3	83	53.2	0	1	292	0.00	29.827 
00:10	58.3	58.3	58.3	83	53.2	0	1	292	0.00	29.827 
00:15	58.3	58.3	58.3	82	52.8	0	2	292	0.00	29.830 
00:20	58.3	58.3	58.3	82	52.8	0	1	292	0.00	29.830 
00:25	58.3	58.3	58.3	83	53.2	0	1	292	0.00	29.830 
00:30	58.3	58.3	58.3	83	53.2	0	1	292	0.00	29.831 
00:35	58.3	58.3	58.3	83	53.2	0	1	292	0.00	29.831 
00:40	58.3	58.3	58.3	83	53.2	0	1	292	0.00	29.831 
00:45	58.3	58.3	58.3	83	53.2	0	0	---	0.00	29.830 
00:50	58.3	58.3	58.3	83	53.2	0	1	292	0.00	29.830 
00:55	58.3	58.3	58.3	84	53.5	0	0	---	0.00	29.830 
01:00	58.3	58.3	58.3	84	53.5	0	1	292	0.00	29.830 
01:05	58.3	58.3	58.3	84	53.5	0	1	292	0.00	29.830 
01:10	58.3	58.3	58.3	84	53.5	0	1	292	0.00	29.830 
01:15	58.3	58.3	58.3	84	53.5	0	1	292	0.00	29.826 
01:20	58.3	58.3	58.3	84	53.5	0	1	292	0.00	29.826 
01:25	58.3	58.3	58.3	85	53.8	0	1	292	0.00	29.826 
01:30	58.3	58.3	58.3	84	53.5	0	2	292	0.00	29.826 
01:35	58.3	58.3	58.3	84	53.5	0	1	292	0.00	29.826 
01:40	58.3	58.3	58.3	84	53.5	0	1	292	0.00	29.826 
01:45	58.3	58.3	58.3	84	53.5	0	1	292	0.00	29.825 
01:50	58.3	58.3	58.3	83	53.2	0	2	292	0.00	29.825 
01:55	58.3	58.3	58.3	83	53.2	0	2	292	0.00	29.825 
02:00	58.3	58.3	58.3	83	53.2	1	4	292	0.00	29.824 
02:05	58.3	58.3	58.3	83	53.2	0	2	292	0.00	29.824 
02:10	58.3	58.3	58.3	83	53.2	1	2	292	0.00	29.824 
02:15	58.3	58.3	58.3	82	52.8	0	1	292	0.00	29.820 
02:20	58.3	58.3	58.3	82	52.8	0	2	292	0.00	29.820 
02:25	58.3	58.3	58.3	82	52.8	0	3	292	0.00	29.820 
02:30	58.3	58.3	58.3	82	52.8	0	3	292	0.00	29.817 
02:35	58.3	58.3	58.3	82	52.8	1	3	270	0.00	29.817 
02:40	58.3	58.3	58.3	83	53.2	1	3	270	0.00	29.817 
02:45	58.3	58.3	58.3	83	53.2	1	3	270	0.00	29.817 
02:50	58.1	58.1	58.1	83	53.0	0	2	270	0.00	29.817 
02:55	58.1	58.1	58.1	83	53.0	1	3	270	0.00	29.817 
03:00	58.1	58.1	58.1	83	53.0	0	2	270	0.00	29.816 
03:05	58.1	58.1	58.1	83	53.0	1	2	270	0.00	29.816 
03:10	58.1	58.1	58.1	83	53.0	1	3	270	0.00	29.816 
03:15	58.1	58.1	58.1	83	53.0	1	3	270	0.00	29.815 
03:20	58.1	58.1	58.1	83	53.0	1	3	270	0.00	29.815 
03:25	58.1	58.1	58.1	84	53.3	1	3	270	0.00	29.815 
03:30	58.1	58.1	58.1	84	53.3	1	2	292	0.00	29.813 
03:35	58.0	58.0	58.0	85	53.5	1	4	292	0.00	29.813 
03:40	58.0	58.0	58.0	86	53.8	1	3	292	0.00	29.813 
03:45	57.8	57.8	57.8	86	53.6	1	3	292	0.00	29.815 
03:50	57.6	57.6	57.6	87	53.8	1	3	292	0.00	29.815 
03:55	57.5	57.5	57.5	88	54.0	0	3	315	0.00	29.815 
04:00	57.5	57.5	57.5	88	54.0	0	3	315	0.00	29.817 
04:05	57.3	57.3	57.3	88	53.8	1	3	315	0.00	29.817 
04:10	57.3	57.3	57.3	88	53.8	0	1	315	0.00	29.817 
04:15	57.3	57.3	57.3	89	54.1	0	1	315	0.00	29.825 
04:20	57.3	57.3	57.3	89	54.1	0	1	315	0.00	29.825 
04:25	57.3	57.3	57.3	89	54.1	0	1	315	0.00	29.825 
04:30	57.2	57.2	57.2	89	54.0	0	1	315	0.00	29.824 
04:35	57.2	57.2	57.2	89	54.0	0	1	315	0.00	29.824 
04:40	57.0	57.0	57.0	89	53.8	0	1	315	0.00	29.824 
04:45	57.0	57.0	57.0	89	53.8	0	1	315	0.00	29.826 
04:50	56.9	56.9	56.9	89	53.7	0	1	315	0.00	29.826 
04:55	56.9	56.9	56.9	90	54.0	0	1	315	0.00	29.826 
05:00	56.9	56.9	56.9	90	54.0	0	1	315	0.00	29.828 
05:05	56.7	56.7	56.7	90	53.8	0	1	315	0.00	29.828 
05:10	56.6	56.6	56.6	90	53.7	0	1	315	0.00	29.828 
05:15	56.5	56.5	56.5	90	53.6	0	1	315	0.00	29.832 
05:20	56.3	56.3	56.3	90	53.4	0	0	---	0.00	29.832 
05:25	56.0	56.0	56.0	90	53.1	0	1	315	0.00	29.832 
05:30	55.9	55.9	55.9	91	53.3	0	0	---	0.00	29.836 
05:35	55.9	55.9	55.9	91	53.3	0	0	---	0.00	29.836 
05:40	55.9	55.9	55.9	91	53.3	0	0	---	0.00	29.836 
05:45	56.0	56.0	56.0	91	53.4	0	0	---	0.00	29.844 
05:50	56.0	56.0	56.0	91	53.4	0	0	---	0.00	29.844 
05:55	56.0	56.0	56.0	91	53.4	0	0	---	0.00	29.844 
06:00	56.0	56.0	56.0	91	53.4	0	0	---	0.00	29.847 
06:05	56.2	56.2	56.2	91	53.6	0	2	315	0.00	29.847 
06:10	56.2	56.2	56.2	91	53.6	0	1	315	0.00	29.847 
06:15	56.2	56.2	56.2	91	53.6	0	1	315	0.00	29.855 
06:20	56.2	56.2	56.2	91	53.6	0	0	---	0.00	29.855 
06:25	56.3	56.3	56.3	91	53.7	0	0	---	0.00	29.855 
06:30	56.5	56.5	56.5	91	53.9	0	1	315	0.00	29.861 
06:35	56.5	56.5	56.5	92	54.2	0	1	315	0.00	29.861 
06:40	56.5	56.5	56.5	92	54.2	0	0	---	0.00	29.861 
06:45	56.5	56.5	56.5	92	54.2	0	0	---	0.00	29.862 
06:50	56.6	56.6	56.6	92	54.3	0	0	---	0.00	29.862 
06:55	56.6	56.6	56.6	92	54.3	0	0	---	0.00	29.862 
07:00	56.7	56.7	56.7	92	54.4	0	1	315	0.00	29.867 
07:05	56.7	56.7	56.7	92	54.4	0	0	---	0.00	29.867 
07:10	56.9	56.9	56.9	92	54.6	0	0	---	0.00	29.867 
07:15	57.2	57.2	57.2	92	54.9	0	1	315	0.00	29.875 
07:20	57.2	57.2	57.2	92	54.9	0	1	68	0.00	29.875 
07:25	57.3	57.3	57.3	92	55.0	0	1	338	0.00	29.875 
07:30	57.3	57.3	57.3	92	55.0	0	1	338	0.00	29.875 
07:35	57.6	57.6	57.6	92	55.3	0	0	---	0.00	29.875 
07:40	57.8	57.8	57.8	91	55.2	0	1	338	0.00	29.875 
07:45	57.8	57.8	57.8	91	55.2	0	1	338	0.00	29.880 
07:50	58.0	58.0	58.0	91	55.4	0	1	338	0.00	29.880 
07:55	58.3	58.3	58.3	91	55.7	0	0	---	0.00	29.880 
08:00	58.4	58.4	58.4	90	55.5	0	1	338	0.00	29.880 
08:05	58.6	58.6	58.6	89	55.4	0	1	338	0.00	29.880 
08:10	58.9	58.9	58.9	88	55.3	0	3	338	0.00	29.880 
08:15	59.0	59.0	59.0	87	55.1	0	4	315	0.00	29.881 
08:20	59.0	59.0	59.0	85	54.5	1	4	315	0.00	29.881 
08:25	59.2	59.2	59.2	84	54.4	1	3	315	0.00	29.881 
08:30	59.2	59.2	59.2	81	53.4	1	4	315	0.00	29.885 
08:35	59.3	59.3	59.3	80	53.1	1	3	315	0.00	29.885 
08:40	59.3	59.3	59.3	80	53.1	1	3	292	0.00	29.885 
08:45	59.6	59.6	59.6	79	53.1	1	4	292	0.00	29.894 
08:50	59.9	59.9	59.9	79	53.4	1	3	338	0.00	29.894 
08:55	60.5	60.5	60.5	78	53.6	0	3	315	0.00	29.894 
09:00	61.0	61.0	61.0	78	54.1	0	2	45	0.00	29.895 
09:05	61.3	61.3	61.3	76	53.7	1	4	338	0.00	29.895 
09:10	61.6	61.6	61.6	76	54.0	1	4	292	0.00	29.895 
09:15	61.5	61.5	61.5	73	52.8	2	4	315	0.00	29.898 
09:20	61.3	61.3	61.3	74	52.9	1	5	315	0.00	29.898 
09:25	61.3	61.3	61.3	73	52.6	2	4	292	0.00	29.898 
09:30	61.5	61.5	61.5	73	52.8	2	3	292	0.00	29.903 
09:35	61.8	61.8	61.8	73	53.0	1	3	292	0.00	29.903 
09:40	62.3	62.3	62.3	73	53.5	0	1	315	0.00	29.903 
09:45	62.4	62.4	62.4	73	53.6	1	2	315	0.00	29.907 
09:50	62.9	62.9	62.9	74	54.5	1	3	292	0.00	29.907 
09:55	62.9	62.9	62.9	71	53.3	2	6	270	0.00	29.907 
10:00	62.4	62.4	62.4	72	53.2	1	4	270	0.00	29.908 
10:05	62.6	62.6	62.6	72	53.4	2	5	270	0.00	29.908 
10:10	63.1	63.1	63.1	71	53.5	2	5	270	0.00	29.908 
10:15	63.2	63.2	63.2	70	53.2	1	4	270	0.00	29.904 
10:20	63.2	63.2	63.2	71	53.6	0	2	315	0.00	29.904 
10:25	63.7	63.7	63.7	71	54.1	0	2	315	0.00	29.904 
10:30	63.7	63.7	63.7	69	53.3	1	3	292	0.00	29.908 
10:35	63.5	63.5	63.5	70	53.5	2	5	270	0.00	29.908 
10:40	63.4	63.4	63.4	70	53.4	1	4	315	0.00	29.908 
10:45	63.5	63.5	63.5	70	53.5	1	3	315	0.00	29.910 
10:50	63.7	63.7	63.7	69	53.3	1	3	292	0.00	29.910 
10:55	63.9	63.9	63.9	70	53.9	0	2	315	0.00	29.910 
11:00	63.7	63.7	63.7	71	54.1	1	5	315	0.00	29.916 
11:05	63.2	63.2	63.2	73	54.4	1	5	270	0.00	29.916 
11:10	62.7	62.7	62.7	73	53.9	2	4	315	0.00	29.916 
11:15	62.6	62.6	62.6	74	54.2	2	5	315	0.00	29.923 
11:20	62.9	62.9	62.9	74	54.5	1	4	270	0.00	29.923 
11:25	63.2	63.2	63.2	73	54.4	2	4	315	0.00	29.923 
11:30	63.2	63.2	63.2	74	54.8	1	4	292	0.00	29.925 
11:35	63.4	63.4	63.4	74	55.0	1	4	315	0.00	29.925 
11:40	63.5	63.5	63.5	72	54.3	1	4	292	0.00	29.925 
11:45	63.4	63.4	63.4	73	54.6	0	2	0	0.00	29.932 
11:50	63.1	63.1	63.1	73	54.3	2	5	292	0.00	29.932 
11:55	63.1	63.1	63.1	74	54.7	2	4	270	0.00	29.932 
12:00	63.5	63.5	63.5	74	55.1	1	2	270	0.00	29.931 
12:05	63.9	63.9	63.9	72	54.7	1	5	270	0.00	29.931 
12:10	63.9	63.9	63.9	72	54.7	2	6	315	0.00	29.931 
12:15	63.9	63.9	63.9	72	54.7	1	5	315	0.00	29.938 
12:20	63.9	63.9	63.9	73	55.1	1	3	248	0.00	29.938 
12:25	64.0	64.0	64.0	73	55.2	1	4	248	0.00	29.938 
12:30	63.9	63.9	63.9	72	54.7	2	5	315	0.00	29.940 
12:35	63.9	63.9	63.9	73	55.1	1	5	315	0.00	29.940 
12:40	63.9	63.9	63.9	73	55.1	1	3	315	0.00	29.940 
12:45	64.0	64.0	64.0	73	55.2	1	3	292	0.00	29.941 
12:50	64.5	64.5	64.5	72	55.3	1	4	292	0.00	29.941 
12:55	65.2	65.2	65.2	71	55.6	1	3	315	0.00	29.941 
13:00	66.1	66.1	66.1	70	56.0	2	4	315	0.00	29.936 
13:05	66.3	66.3	66.3	69	55.8	3	5	315	0.00	29.936 
13:10	67.1	67.1	67.1	68	56.2	3	6	270	0.00	29.936 
13:15	67.8	67.8	67.8	66	56.0	2	6	270	0.00	29.935 
13:20	67.9	67.9	67.9	66	56.1	2	5	270	0.00	29.935 
13:25	67.6	67.6	67.6	66	55.8	2	5	315	0.00	29.935 
13:30	67.6	67.6	67.6	66	55.8	2	5	315	0.00	29.935 
13:35	67.1	67.1	67.1	67	55.8	2	5	270	0.00	29.935 
13:40	66.4	66.4	66.4	69	55.9	1	2	292	0.00	29.935 
13:45	66.1	66.1	66.1	70	56.0	1	2	292	0.00	29.945 
13:50	66.0	66.0	66.0	70	55.9	1	5	315	0.00	29.945 
13:55	66.4	66.4	66.4	69	55.9	2	5	315	0.00	29.945 
14:00	67.1	67.1	67.1	68	56.2	2	6	270	0.00	29.942 
14:05	67.6	67.6	67.6	66	55.8	1	3	292	0.00	29.942 
14:10	68.1	68.1	68.1	66	56.3	2	5	270	0.00	29.942 
14:15	68.1	68.1	68.1	65	55.9	1	3	292	0.00	29.945 
14:20	67.4	67.4	67.4	67	56.1	2	4	292	0.00	29.945 
14:25	66.8	66.8	66.8	68	55.9	2	5	292	0.00	29.945 
14:30	66.3	66.3	66.3	69	55.8	2	5	270	0.00	29.950 
14:35	66.3	66.3	66.3	70	56.2	2	5	270	0.00	29.950 
14:40	66.4	66.4	66.4	70	56.3	1	3	270	0.00	29.950 
14:45	66.4	66.4	66.4	70	56.3	2	6	270	0.00	29.952 
14:50	66.6	66.6	66.6	70	56.5	2	5	270	0.00	29.952 
14:55	66.9	66.9	66.9	71	57.2	1	4	270	0.00	29.952 
15:00	67.8	67.8	67.8	70	57.6	1	3	292	0.00	29.938 
15:05	68.4	68.4	68.4	68	57.4	1	4	292	0.00	29.938 
15:10	69.4	69.4	69.4	65	57.1	2	5	315	0.00	29.938 
15:15	70.4	70.4	70.4	62	56.7	1	5	292	0.00	29.934 
15:20	70.4	70.4	70.4	63	57.2	2	4	270	0.00	29.934 
15:25	70.6	70.6	70.6	60	56.0	2	4	292	0.00	29.934 
15:30	70.4	70.4	70.4	61	56.3	2	5	270	0.00	29.933 
15:35	70.3	70.3	70.3	60	55.7	2	5	315	0.00	29.933 
15:40	70.1	70.1	70.1	61	56.0	2	4	292	0.00	29.933 
15:45	70.3	70.3	70.3	62	56.7	1	4	292	0.00	29.932 
15:50	70.4	70.4	70.4	62	56.7	1	3	270	0.00	29.932 
15:55	70.1	70.1	70.1	62	56.5	1	3	292	0.00	29.932 
16:00	69.8	69.8	69.8	62	56.2	2	4	292	0.00	29.933 
16:05	70.1	70.1	70.1	62	56.5	1	4	315	0.00	29.933 
16:10	70.3	70.3	70.3	61	56.2	1	3	292	0.00	29.933 
16:15	70.1	70.1	70.1	62	56.5	1	4	270	0.00	29.936 
16:20	69.3	69.3	69.3	63	56.2	2	7	315	0.00	29.936 
16:25	69.1	69.1	69.1	64	56.4	1	4	338	0.00	29.936 
16:30	69.1	69.1	69.1	64	56.4	1	5	0	0.00	29.940 
16:35	69.3	69.3	69.3	63	56.2	2	5	292	0.00	29.940 
16:40	69.4	69.4	69.4	63	56.2	2	6	338	0.00	29.940 
16:45	69.6	69.6	69.6	63	56.4	2	4	292	0.00	29.947 
16:50	70.3	70.3	70.3	62	56.7	1	4	315	0.00	29.947 
16:55	70.1	70.1	70.1	60	55.6	2	5	292	0.00	29.947 
17:00	69.6	69.6	69.6	61	55.5	3	9	270	0.00	29.950 
17:05	69.3	69.3	69.3	62	55.7	2	4	315	0.00	29.950 
17:10	68.9	68.9	68.9	62	55.3	2	5	292	0.00	29.950 
17:15	68.6	68.6	68.6	63	55.5	1	3	292	0.00	29.954 
17:20	68.4	68.4	68.4	64	55.7	1	5	315	0.00	29.954 
17:25	68.6	68.6	68.6	64	55.9	1	4	292	0.00	29.954 
17:30	68.6	68.6	68.6	64	55.9	1	4	292	0.00	29.958 
17:35	68.6	68.6	68.6	65	56.4	1	5	292	0.00	29.958 
17:40	68.6	68.6	68.6	65	56.4	2	5	292	0.00	29.958 
17:45	68.4	68.4	68.4	66	56.6	1	4	315	0.00	29.959 
17:50	68.4	68.4	68.4	66	56.6	1	3	292	0.00	29.959 
17:55	67.9	67.9	67.9	66	56.1	2	5	292	0.00	29.959 
18:00	67.8	67.8	67.8	67	56.4	2	5	292	0.00	29.965 
18:05	67.6	67.6	67.6	67	56.2	1	5	292	0.00	29.965 
18:10	67.4	67.4	67.4	67	56.1	1	4	270	0.00	29.965 
18:15	67.4	67.4	67.4	67	56.1	1	4	270	0.00	29.964 
18:20	67.8	67.8	67.8	68	56.8	1	4	270	0.00	29.964 
18:25	68.3	68.3	68.3	66	56.5	1	4	315	0.00	29.964 
18:30	68.4	68.4	68.4	65	56.2	2	6	315	0.00	29.963 
18:35	68.4	68.4	68.4	65	56.2	2	4	315	0.00	29.963 
18:40	68.3	68.3	68.3	65	56.1	2	5	292	0.00	29.963 
18:45	68.3	68.3	68.3	65	56.1	1	5	338	0.00	29.966 
18:50	67.8	67.8	67.8	66	56.0	2	4	315	0.00	29.966 
18:55	67.8	67.8	67.8	67	56.4	1	3	315	0.00	29.966 
19:00	67.4	67.4	67.4	66	55.6	2	4	292	0.00	29.968 
19:05	67.6	67.6	67.6	66	55.8	2	5	315	0.00	29.968 
19:10	67.6	67.6	67.6	67	56.2	1	4	315	0.00	29.968 
19:15	67.6	67.6	67.6	67	56.2	1	2	315	0.00	29.967 
19:20	67.8	67.8	67.8	67	56.4	1	3	292	0.00	29.967 
19:25	67.9	67.9	67.9	65	55.7	1	4	292	0.00	29.967 
19:30	67.6	67.6	67.6	66	55.8	1	4	315	0.00	29.967 
19:35	67.3	67.3	67.3	67	56.0	2	5	315	0.00	29.967 
19:40	66.8	66.8	66.8	68	55.9	1	3	292	0.00	29.967 
19:45	66.4	66.4	66.4	69	55.9	1	5	292	0.00	29.975 
19:50	66.3	66.3	66.3	68	55.4	2	6	292	0.00	29.975 
19:55	66.0	66.0	66.0	69	55.5	2	4	270	0.00	29.975 
20:00	66.0	66.0	66.0	69	55.5	1	5	292	0.00	29.980 
20:05	65.8	65.8	65.8	69	55.3	1	3	292	0.00	29.980 
20:10	65.6	65.6	65.6	70	55.5	1	2	292	0.00	29.980 
20:15	65.6	65.6	65.6	70	55.5	0	2	292	0.00	29.982 
20:20	65.6	65.6	65.6	70	55.5	0	3	292	0.00	29.982 
20:25	65.8	65.8	65.8	70	55.7	1	3	292	0.00	29.982 
20:30	65.8	65.8	65.8	70	55.7	0	2	315	0.00	29.983 
20:35	65.8	65.8	65.8	70	55.7	0	3	270	0.00	29.983 
20:40	65.6	65.6	65.6	70	55.5	1	2	315	0.00	29.983 
20:45	65.6	65.6	65.6	70	55.5	1	2	315	0.00	29.985 
20:50	65.6	65.6	65.6	71	55.9	1	3	292	0.00	29.985 
20:55	65.5	65.5	65.5	71	55.8	1	4	292	0.00	29.985 
21:00	65.3	65.3	65.3	71	55.6	1	3	292	0.00	29.994 
21:05	65.3	65.3	65.3	71	55.6	1	4	315	0.00	29.994 
21:10	65.2	65.2	65.2	71	55.6	1	4	315	0.00	29.994 
21:15	65.0	65.0	65.0	71	55.4	0	2	315	0.00	29.995 
21:20	65.0	65.0	65.0	71	55.4	0	2	315	0.00	29.995 
21:25	64.8	64.8	64.8	71	55.2	1	3	270	0.00	29.995 
21:30	64.8	64.8	64.8	71	55.2	0	2	270	0.00	29.996 
21:35	64.7	64.7	64.7	71	55.1	1	4	270	0.00	29.996 
21:40	64.7	64.7	64.7	71	55.1	0	3	270	0.00	29.996 
21:45	64.7	64.7	64.7	71	55.1	0	2	270	0.00	29.998 
21:50	64.5	64.5	64.5	71	54.9	0	2	292	0.00	29.998 
21:55	64.5	64.5	64.5	71	54.9	1	3	315	0.00	29.998 
22:00	64.3	64.3	64.3	71	54.7	0	2	315	0.00	29.997 
22:05	64.2	64.2	64.2	72	55.0	0	2	315	0.00	29.997 
22:10	64.0	64.0	64.0	73	55.2	0	1	315	0.00	29.997 
22:15	64.0	64.0	64.0	73	55.2	0	1	315	0.00	29.999 
22:20	63.9	63.9	63.9	73	55.1	0	2	315	0.00	29.999 
22:25	63.9	63.9	63.9	73	55.1	0	1	315	0.00	29.999 
22:30	63.9	63.9	63.9	73	55.1	0	1	315	0.00	30.002 
22:35	63.9	63.9	63.9	74	55.4	0	1	315	0.00	30.002 
22:40	63.9	63.9	63.9	74	55.4	0	1	315	0.00	30.002 
22:45	63.7	63.7	63.7	74	55.3	0	2	315	0.00	30.004 
22:50	63.7	63.7	63.7	74	55.3	0	0	---	0.00	30.004 
22:55	63.7	63.7	63.7	75	55.6	0	1	315	0.00	30.004 
23:00	63.7	63.7	63.7	75	55.6	0	1	315	0.00	30.010 
23:05	63.7	63.7	63.7	75	55.6	0	0	---	0.00	30.010 
23:10	63.5	63.5	63.5	75	55.4	0	1	315	0.00	30.010 
23:15	63.5	63.5	63.5	75	55.4	0	1	315	0.00	30.012 
23:20	63.5	63.5	63.5	76	55.8	0	1	315	0.00	30.012 
23:25	63.4	63.4	63.4	76	55.7	0	1	315	0.00	30.012 
23:30	63.4	63.4	63.4	76	55.7	0	1	315	0.00	30.015 
23:35	63.4	63.4	63.4	76	55.7	0	0	---	0.00	30.015 
23:40	63.4	63.4	63.4	76	55.7	0	1	315	0.00	30.015 
23:45	63.2	63.2	63.2	77	55.9	0	1	315	0.00	30.017 
23:50	63.1	63.1	63.1	77	55.8	0	0	---	0.00	30.017 
23:55	62.9	62.9	62.9	77	55.6	0	1	315	0.00	30.017 

CoCoRaHS
IN-AL-39
A2 Web Hosting
Creative Commons License
GoDaddy
search engine by freefind advanced

loaded 2018-11-16 10:42:14 • last modified 2010-11-18 10:43:29
Privacy PolicyDisclaimer
• wx.awcolley.com is powered by PmWiki v.2002016 •
• all content (unless otherwise noted) © 2018 A W Colley